createdAt,value
2022-08-17T00:00:00.495Z,19.41
2022-08-17T00:01:02.714Z,19.41
2022-08-17T00:02:00.276Z,19.41
2022-08-17T00:03:00.236Z,19.41
2022-08-17T00:04:00.266Z,19.39
2022-08-17T00:05:00.264Z,19.39
2022-08-17T00:06:03.437Z,19.39
2022-08-17T00:07:00.258Z,19.39
2022-08-17T00:08:00.426Z,19.39
2022-08-17T00:09:02.347Z,19.38
2022-08-17T00:10:00.255Z,19.38
2022-08-17T00:11:01.117Z,19.38
2022-08-17T00:12:51.162Z,19.38
2022-08-17T00:13:04.209Z,19.38
2022-08-17T00:14:03.946Z,19.44
2022-08-17T00:15:00.279Z,19.44
2022-08-17T00:16:02.498Z,19.44
2022-08-17T00:17:00.288Z,19.44
2022-08-17T00:18:00.319Z,19.44
2022-08-17T00:19:08.309Z,19.44
2022-08-17T00:20:00.298Z,19.44
2022-08-17T00:21:02.182Z,19.44
2022-08-17T00:22:32.472Z,19.44
2022-08-17T00:23:02.710Z,19.44
2022-08-17T00:24:00.327Z,19.46
2022-08-17T00:25:00.357Z,19.46
2022-08-17T00:26:00.691Z,19.46
2022-08-17T00:27:00.261Z,19.46
2022-08-17T00:28:00.368Z,19.46
2022-08-17T00:29:00.341Z,19.42
2022-08-17T00:30:00.461Z,19.42
2022-08-17T00:31:00.875Z,19.42
2022-08-17T00:32:00.632Z,19.42
2022-08-17T00:33:12.121Z,19.42
2022-08-17T00:34:00.645Z,19.40
2022-08-17T00:35:03.029Z,19.40
2022-08-17T00:36:00.757Z,19.40
2022-08-17T00:37:00.270Z,19.40
2022-08-17T00:38:00.347Z,19.40
2022-08-17T00:39:00.266Z,19.41
2022-08-17T00:40:00.453Z,19.41
2022-08-17T00:41:03.305Z,19.41
2022-08-17T00:42:00.314Z,19.41
2022-08-17T00:43:08.159Z,19.41
2022-08-17T00:44:01.622Z,19.39
2022-08-17T00:45:00.459Z,19.39
2022-08-17T00:46:01.895Z,19.39
2022-08-17T00:47:00.276Z,19.39
2022-08-17T00:48:00.262Z,19.39
2022-08-17T00:49:00.331Z,19.40
2022-08-17T00:50:00.865Z,19.40
2022-08-17T00:51:01.271Z,19.40
2022-08-17T00:52:04.622Z,19.40
2022-08-17T00:53:00.636Z,19.40
2022-08-17T00:54:05.997Z,19.43
2022-08-17T00:55:00.840Z,19.43
2022-08-17T00:56:02.173Z,19.43
2022-08-17T00:57:03.809Z,19.43
2022-08-17T00:58:02.129Z,19.43
2022-08-17T00:59:01.541Z,19.40
2022-08-17T01:00:04.154Z,19.40
2022-08-17T01:01:00.399Z,19.40
2022-08-17T01:02:00.692Z,19.40
2022-08-17T01:03:03.835Z,19.40
2022-08-17T01:04:00.657Z,19.38
2022-08-17T01:05:00.533Z,19.38
2022-08-17T01:06:01.412Z,19.38
2022-08-17T01:07:00.627Z,19.38
2022-08-17T01:08:01.071Z,19.38
2022-08-17T01:09:00.955Z,19.32
2022-08-17T01:10:02.268Z,19.32
2022-08-17T01:11:01.983Z,19.32
2022-08-17T01:12:00.502Z,19.32
2022-08-17T01:13:01.100Z,19.32
2022-08-17T01:14:00.285Z,19.34
2022-08-17T01:15:00.288Z,19.34
2022-08-17T01:16:03.273Z,19.34
2022-08-17T01:17:00.391Z,19.34
2022-08-17T01:18:00.471Z,19.34
2022-08-17T01:19:02.276Z,19.33
2022-08-17T01:20:00.495Z,19.33
2022-08-17T01:21:02.972Z,19.33
2022-08-17T01:22:04.130Z,19.33
2022-08-17T01:23:00.399Z,19.33
2022-08-17T01:24:00.386Z,19.31
2022-08-17T01:25:01.353Z,19.31
2022-08-17T01:26:00.986Z,19.31
2022-08-17T01:27:01.335Z,19.31
2022-08-17T01:28:00.709Z,19.31
2022-08-17T01:29:01.726Z,19.28
2022-08-17T01:30:02.933Z,19.28
2022-08-17T01:31:02.072Z,19.28
2022-08-17T01:32:01.943Z,19.28
2022-08-17T01:33:00.289Z,19.28
2022-08-17T01:34:01.895Z,19.25
2022-08-17T01:35:00.560Z,19.25
2022-08-17T01:36:00.471Z,19.25
2022-08-17T01:37:00.496Z,19.25
2022-08-17T01:38:00.282Z,19.25
2022-08-17T01:39:00.686Z,19.26
2022-08-17T01:40:05.231Z,19.26
2022-08-17T01:41:03.357Z,19.26
2022-08-17T01:42:06.523Z,19.26
2022-08-17T01:43:07.393Z,19.26
2022-08-17T01:44:02.815Z,19.30
2022-08-17T01:45:03.438Z,19.30
2022-08-17T01:46:03.539Z,19.30
2022-08-17T01:47:00.277Z,19.30
2022-08-17T01:48:00.273Z,19.30
2022-08-17T01:49:00.681Z,19.29
2022-08-17T01:50:05.042Z,19.29
2022-08-17T01:51:00.402Z,19.29
2022-08-17T01:52:04.967Z,19.29
2022-08-17T01:53:03.137Z,19.29
2022-08-17T01:54:02.717Z,19.23
2022-08-17T01:55:00.404Z,19.23
2022-08-17T01:56:04.287Z,19.23
2022-08-17T01:57:00.296Z,19.23
2022-08-17T01:58:01.319Z,19.23
2022-08-17T01:59:00.425Z,19.27
2022-08-17T02:00:00.657Z,19.27
2022-08-17T02:01:01.465Z,19.27
2022-08-17T02:02:00.275Z,19.27
2022-08-17T02:03:00.285Z,19.27
2022-08-17T02:04:01.900Z,19.24
2022-08-17T02:05:00.332Z,19.24
2022-08-17T02:06:00.720Z,19.24
2022-08-17T02:07:00.545Z,19.24
2022-08-17T02:08:00.969Z,19.24
2022-08-17T02:09:02.614Z,19.30
2022-08-17T02:10:00.277Z,19.30
2022-08-17T02:11:01.093Z,19.30
2022-08-17T02:12:37.793Z,19.30
2022-08-17T02:13:01.312Z,19.30
2022-08-17T02:14:03.244Z,19.31
2022-08-17T02:15:00.528Z,19.31
2022-08-17T02:16:00.292Z,19.31
2022-08-17T02:17:00.442Z,19.31
2022-08-17T02:18:01.082Z,19.31
2022-08-17T02:19:00.315Z,19.32
2022-08-17T02:20:00.329Z,19.32
2022-08-17T02:21:00.313Z,19.32
2022-08-17T02:22:00.270Z,19.32
2022-08-17T02:23:01.118Z,19.32
2022-08-17T02:24:00.627Z,19.12
2022-08-17T02:25:02.173Z,19.12
2022-08-17T02:26:00.274Z,19.12
2022-08-17T02:27:00.331Z,19.12
2022-08-17T02:28:00.258Z,19.12
2022-08-17T02:29:00.300Z,19.11
2022-08-17T02:30:00.285Z,19.11
2022-08-17T02:31:04.358Z,19.11
2022-08-17T02:32:00.421Z,19.11
2022-08-17T02:33:00.258Z,19.11
2022-08-17T02:34:03.675Z,19.10
2022-08-17T02:35:00.507Z,19.10
2022-08-17T02:36:00.400Z,19.10
2022-08-17T02:37:00.242Z,19.10
2022-08-17T02:38:00.608Z,19.10
2022-08-17T02:39:01.735Z,19.12
2022-08-17T02:40:01.136Z,19.12
2022-08-17T02:41:00.276Z,19.12
2022-08-17T02:42:00.960Z,19.12
2022-08-17T02:43:00.261Z,19.12
2022-08-17T02:44:00.375Z,19.14
2022-08-17T02:45:00.910Z,19.14
2022-08-17T02:46:00.268Z,19.14
2022-08-17T02:47:00.344Z,19.14
2022-08-17T02:48:00.303Z,19.14
2022-08-17T02:49:00.301Z,19.16
2022-08-17T02:50:00.424Z,19.16
2022-08-17T02:51:00.356Z,19.16
2022-08-17T02:52:01.403Z,19.16
2022-08-17T02:53:02.300Z,19.16
2022-08-17T02:54:35.580Z,19.18
2022-08-17T02:55:00.274Z,19.18
2022-08-17T02:56:00.277Z,19.18
2022-08-17T02:57:00.321Z,19.18
2022-08-17T02:58:00.532Z,19.18
2022-08-17T02:59:00.262Z,19.17
2022-08-17T03:00:00.314Z,19.17
2022-08-17T03:01:00.280Z,19.17
2022-08-17T03:02:02.674Z,19.17
2022-08-17T03:03:01.378Z,19.17
2022-08-17T03:04:00.271Z,19.15
2022-08-17T03:05:00.269Z,19.15
2022-08-17T03:06:00.765Z,19.15
2022-08-17T03:07:00.312Z,19.15
2022-08-17T03:08:00.505Z,19.15
2022-08-17T03:09:00.334Z,19.11
2022-08-17T03:10:00.275Z,19.11
2022-08-17T03:11:00.247Z,19.11
2022-08-17T03:12:09.044Z,19.11
2022-08-17T03:13:00.270Z,19.11
2022-08-17T03:14:00.296Z,19.12
2022-08-17T03:15:03.855Z,19.12
2022-08-17T03:16:00.248Z,19.12
2022-08-17T03:17:00.408Z,19.12
2022-08-17T03:18:01.126Z,19.12
2022-08-17T03:19:00.306Z,19.11
2022-08-17T03:20:00.633Z,19.11
2022-08-17T03:21:00.664Z,19.11
2022-08-17T03:22:35.310Z,19.11
2022-08-17T03:23:02.702Z,19.11
2022-08-17T03:24:00.292Z,19.09
2022-08-17T03:25:00.283Z,19.09
2022-08-17T03:26:00.278Z,19.09
2022-08-17T03:27:00.263Z,19.09
2022-08-17T03:28:00.323Z,19.09
2022-08-17T03:29:00.249Z,19.10
2022-08-17T03:30:00.292Z,19.10
2022-08-17T03:31:00.339Z,19.10
2022-08-17T03:32:08.956Z,19.10
2022-08-17T03:33:01.307Z,19.10
2022-08-17T03:34:00.267Z,19.08
2022-08-17T03:35:00.298Z,19.08
2022-08-17T03:36:00.270Z,19.08
2022-08-17T03:37:00.290Z,19.08
2022-08-17T03:38:01.198Z,19.08
2022-08-17T03:39:00.260Z,19.04
2022-08-17T03:40:00.917Z,19.04
2022-08-17T03:41:00.343Z,19.04
2022-08-17T03:42:05.830Z,19.04
2022-08-17T03:43:04.696Z,19.04
2022-08-17T03:44:00.308Z,19.06
2022-08-17T03:45:00.884Z,19.06
2022-08-17T03:46:01.581Z,19.06
2022-08-17T03:47:00.304Z,19.06
2022-08-17T03:48:00.274Z,19.06
2022-08-17T03:49:00.701Z,19.03
2022-08-17T03:50:00.438Z,19.03
2022-08-17T03:51:00.407Z,19.03
2022-08-17T03:52:00.288Z,19.03
2022-08-17T03:53:02.962Z,19.03
2022-08-17T03:54:00.501Z,19.02
2022-08-17T03:55:00.289Z,19.02
2022-08-17T03:56:01.429Z,19.02
2022-08-17T03:57:02.498Z,19.02
2022-08-17T03:58:00.259Z,19.02
2022-08-17T03:59:00.268Z,18.99
2022-08-17T04:00:00.457Z,18.99
2022-08-17T04:01:00.412Z,18.99
2022-08-17T04:02:03.146Z,18.99
2022-08-17T04:03:00.288Z,18.99
2022-08-17T04:04:00.268Z,18.97
2022-08-17T04:05:00.303Z,18.97
2022-08-17T04:06:00.289Z,18.97
2022-08-17T04:07:00.292Z,18.97
2022-08-17T04:08:00.269Z,18.97
2022-08-17T04:09:00.265Z,18.95
2022-08-17T04:10:00.323Z,18.95
2022-08-17T04:11:00.684Z,18.95
2022-08-17T04:12:02.449Z,18.95
2022-08-17T04:13:00.329Z,18.95
2022-08-17T04:14:00.262Z,18.91
2022-08-17T04:15:00.263Z,18.91
2022-08-17T04:16:00.263Z,18.91
2022-08-17T04:17:00.267Z,18.91
2022-08-17T04:18:00.387Z,18.91
2022-08-17T04:19:00.620Z,18.93
2022-08-17T04:20:00.308Z,18.93
2022-08-17T04:21:00.330Z,18.93
2022-08-17T04:22:00.307Z,18.93
2022-08-17T04:23:01.844Z,18.93
2022-08-17T04:24:00.396Z,18.90
2022-08-17T04:25:01.829Z,18.90
2022-08-17T04:26:00.267Z,18.90
2022-08-17T04:27:00.267Z,18.90
2022-08-17T04:28:00.305Z,18.90
2022-08-17T04:29:00.256Z,18.94
2022-08-17T04:30:00.898Z,18.94
2022-08-17T04:31:00.418Z,18.94
2022-08-17T04:32:01.046Z,18.94
2022-08-17T04:33:07.087Z,18.94
2022-08-17T04:34:00.353Z,18.92
2022-08-17T04:35:00.300Z,18.92
2022-08-17T04:36:01.333Z,18.92
2022-08-17T04:37:00.268Z,18.92
2022-08-17T04:38:00.265Z,18.92
2022-08-17T04:39:00.759Z,18.78
2022-08-17T04:40:03.925Z,18.78
2022-08-17T04:41:00.985Z,18.78
2022-08-17T04:42:00.279Z,18.78
2022-08-17T04:43:02.820Z,18.78
2022-08-17T04:44:00.606Z,18.81
2022-08-17T04:45:01.698Z,18.81
2022-08-17T04:46:01.730Z,18.81
2022-08-17T04:47:00.358Z,18.81
2022-08-17T04:48:00.274Z,18.81
2022-08-17T04:49:02.236Z,18.82
2022-08-17T04:50:00.380Z,18.82
2022-08-17T04:51:00.619Z,18.82
2022-08-17T04:52:04.415Z,18.82
2022-08-17T04:53:00.702Z,18.82
2022-08-17T04:54:03.337Z,18.74
2022-08-17T04:55:03.351Z,18.74
2022-08-17T04:56:00.309Z,18.74
2022-08-17T04:57:00.283Z,18.74
2022-08-17T04:58:00.314Z,18.74
2022-08-17T04:59:02.066Z,18.71
2022-08-17T05:00:00.391Z,18.71
2022-08-17T05:01:00.395Z,18.71
2022-08-17T05:02:00.310Z,18.71
2022-08-17T05:03:00.263Z,18.71
2022-08-17T05:04:18.385Z,18.63
2022-08-17T05:05:00.311Z,18.63
2022-08-17T05:06:00.424Z,18.63
2022-08-17T05:07:00.267Z,18.63
2022-08-17T05:08:01.349Z,18.63
2022-08-17T05:09:00.279Z,18.65
2022-08-17T05:10:00.293Z,18.65
2022-08-17T05:11:00.324Z,18.65
2022-08-17T05:12:00.834Z,18.65
2022-08-17T05:13:05.280Z,18.65
2022-08-17T05:14:00.351Z,18.61
2022-08-17T05:15:00.303Z,18.61
2022-08-17T05:16:01.492Z,18.61
2022-08-17T05:17:00.520Z,18.61
2022-08-17T05:18:00.396Z,18.61
2022-08-17T05:19:00.288Z,18.59
2022-08-17T05:20:00.261Z,18.59
2022-08-17T05:21:01.202Z,18.59
2022-08-17T05:22:03.125Z,18.59
2022-08-17T05:23:01.532Z,18.59
2022-08-17T05:24:00.290Z,18.65
2022-08-17T05:25:01.864Z,18.65
2022-08-17T05:26:00.313Z,18.65
2022-08-17T05:27:06.293Z,18.65
2022-08-17T05:28:00.292Z,18.65
2022-08-17T05:29:02.482Z,18.58
2022-08-17T05:30:00.311Z,18.58
2022-08-17T05:31:01.245Z,18.58
2022-08-17T05:32:38.457Z,18.58
2022-08-17T05:33:00.263Z,18.58
2022-08-17T05:34:00.267Z,18.53
2022-08-17T05:35:00.632Z,18.53
2022-08-17T05:36:01.032Z,18.53
2022-08-17T05:37:00.270Z,18.53
2022-08-17T05:38:00.685Z,18.53
2022-08-17T05:39:00.284Z,18.62
2022-08-17T05:40:00.477Z,18.62
2022-08-17T05:41:01.694Z,18.62
2022-08-17T05:42:00.956Z,18.62
2022-08-17T05:43:10.168Z,18.62
2022-08-17T05:44:00.276Z,18.61
2022-08-17T05:45:00.288Z,18.61
2022-08-17T05:46:04.167Z,18.61
2022-08-17T05:47:00.812Z,18.61
2022-08-17T05:48:00.323Z,18.61
2022-08-17T05:49:01.849Z,18.40
2022-08-17T05:50:00.514Z,18.40
2022-08-17T05:51:10.170Z,18.40
2022-08-17T05:52:08.154Z,18.40
2022-08-17T05:53:00.258Z,18.40
2022-08-17T05:54:10.183Z,18.60
2022-08-17T05:55:00.253Z,18.60
2022-08-17T05:56:03.546Z,18.60
2022-08-17T05:57:10.204Z,18.60
2022-08-17T05:58:10.178Z,18.60
2022-08-17T05:59:10.180Z,18.56
2022-08-17T06:00:07.750Z,18.56
2022-08-17T06:01:03.636Z,18.56
2022-08-17T06:02:10.195Z,18.56
2022-08-17T06:03:10.171Z,18.56
2022-08-17T06:04:10.170Z,18.50
2022-08-17T06:05:09.304Z,18.50
2022-08-17T06:06:10.175Z,18.50
2022-08-17T06:07:08.876Z,18.50
2022-08-17T06:08:10.196Z,18.50
2022-08-17T06:09:10.174Z,18.49
2022-08-17T06:10:00.250Z,18.49
2022-08-17T06:11:01.280Z,18.49
2022-08-17T06:12:00.251Z,18.49
2022-08-17T06:13:03.549Z,18.49
2022-08-17T06:14:10.180Z,18.54
2022-08-17T06:15:01.267Z,18.54
2022-08-17T06:16:01.720Z,18.54
2022-08-17T06:17:03.373Z,18.54
2022-08-17T06:18:02.899Z,18.54
2022-08-17T06:19:05.262Z,18.46
2022-08-17T06:20:02.994Z,18.46
2022-08-17T06:21:02.075Z,18.46
2022-08-17T06:22:01.354Z,18.46
2022-08-17T06:23:03.469Z,18.46
2022-08-17T06:24:06.044Z,18.42
2022-08-17T06:25:03.469Z,18.42
2022-08-17T06:26:04.801Z,18.42
2022-08-17T06:27:10.210Z,18.42
2022-08-17T06:28:03.575Z,18.42
2022-08-17T06:29:02.578Z,18.40
2022-08-17T06:30:10.201Z,18.40
2022-08-17T06:31:04.652Z,18.40
2022-08-17T06:32:00.804Z,18.40
2022-08-17T06:33:04.768Z,18.40
2022-08-17T06:34:01.574Z,18.39
2022-08-17T06:35:01.275Z,18.39
2022-08-17T06:36:09.600Z,18.39
2022-08-17T06:37:10.335Z,18.39
2022-08-17T06:38:07.954Z,18.39
2022-08-17T06:39:10.212Z,18.20
2022-08-17T06:40:00.392Z,18.20
2022-08-17T06:41:03.530Z,18.20
2022-08-17T06:44:10.213Z,18.25
2022-08-17T06:45:10.227Z,18.25
2022-08-17T06:46:05.870Z,18.25
2022-08-17T06:47:10.170Z,18.25
2022-08-17T06:48:05.933Z,18.25
2022-08-17T06:49:07.716Z,18.33
2022-08-17T06:50:10.210Z,18.33
2022-08-17T06:51:05.101Z,18.33
2022-08-17T06:52:06.945Z,18.33
2022-08-17T06:53:07.696Z,18.33
2022-08-17T06:54:10.167Z,18.35
2022-08-17T06:55:06.473Z,18.35
2022-08-17T06:56:04.344Z,18.35
2022-08-17T06:57:10.205Z,18.35
2022-08-17T06:58:01.863Z,18.35
2022-08-17T06:59:00.799Z,18.34
2022-08-17T07:00:05.273Z,18.34
2022-08-17T07:01:07.257Z,18.34
2022-08-17T07:02:02.313Z,18.34
2022-08-17T07:03:04.813Z,18.34
2022-08-17T07:04:12.202Z,18.24
2022-08-17T07:05:00.320Z,18.24
2022-08-17T07:06:04.350Z,18.24
2022-08-17T07:07:03.712Z,18.24
2022-08-17T07:08:03.424Z,18.24
2022-08-17T07:09:02.911Z,18.32
2022-08-17T07:10:00.361Z,18.32
2022-08-17T07:11:01.896Z,18.32
2022-08-17T07:12:04.479Z,18.32
2022-08-17T07:13:07.328Z,18.32
2022-08-17T07:14:03.550Z,18.37
2022-08-17T07:15:06.861Z,18.37
2022-08-17T07:16:05.877Z,18.37
2022-08-17T07:17:01.660Z,18.37
2022-08-17T07:18:00.609Z,18.37
2022-08-17T07:19:00.304Z,18.22
2022-08-17T07:20:02.982Z,18.22
2022-08-17T07:21:07.450Z,18.22
2022-08-17T07:22:07.731Z,18.22
2022-08-17T07:23:05.361Z,18.22
2022-08-17T07:24:05.606Z,18.28
2022-08-17T07:25:02.934Z,18.28
2022-08-17T07:26:08.136Z,18.28
2022-08-17T07:27:08.271Z,18.28
2022-08-17T07:28:01.661Z,18.28
2022-08-17T07:29:00.757Z,18.28
2022-08-17T07:30:00.257Z,18.28
2022-08-17T07:31:02.120Z,18.28
2022-08-17T07:32:00.279Z,18.28
2022-08-17T07:33:06.019Z,18.28
2022-08-17T07:34:05.500Z,18.36
2022-08-17T07:35:03.930Z,18.36
2022-08-17T07:36:00.297Z,18.36
2022-08-17T07:37:01.193Z,18.36
2022-08-17T07:38:24.196Z,18.36
2022-08-17T07:39:01.318Z,18.31
2022-08-17T07:40:16.127Z,18.31
2022-08-17T07:41:05.615Z,18.31
2022-08-17T07:42:01.599Z,18.31
2022-08-17T07:43:01.430Z,18.31
2022-08-17T07:44:01.764Z,18.37
2022-08-17T07:45:01.370Z,18.37
2022-08-17T07:46:03.105Z,18.37
2022-08-17T07:47:00.427Z,18.37
2022-08-17T07:48:00.409Z,18.37
2022-08-17T07:49:00.237Z,18.31
2022-08-17T07:50:00.420Z,18.31
2022-08-17T07:51:00.280Z,18.31
2022-08-17T07:52:24.245Z,18.31
2022-08-17T07:53:10.156Z,18.31
2022-08-17T07:54:14.097Z,18.31
2022-08-17T07:55:10.175Z,18.31
2022-08-17T07:56:00.251Z,18.31
2022-08-17T07:57:07.662Z,18.31
2022-08-17T07:58:00.289Z,18.31
2022-08-17T07:59:05.348Z,18.37
2022-08-17T08:00:01.437Z,18.37
2022-08-17T08:01:04.502Z,18.37
2022-08-17T08:02:10.331Z,18.37
2022-08-17T08:03:03.294Z,18.37
2022-08-17T08:04:00.391Z,18.47
2022-08-17T08:05:02.502Z,18.47
2022-08-17T08:06:01.438Z,18.47
2022-08-17T08:07:01.670Z,18.47
2022-08-17T08:08:02.461Z,18.47
2022-08-17T08:09:00.301Z,18.40
2022-08-17T08:10:09.478Z,18.40
2022-08-17T08:11:02.777Z,18.40
2022-08-17T08:12:10.184Z,18.40
2022-08-17T08:13:04.888Z,18.40
2022-08-17T08:14:10.172Z,18.41
2022-08-17T08:15:10.186Z,18.41
2022-08-17T08:16:10.168Z,18.41
2022-08-17T08:17:01.833Z,18.41
2022-08-17T08:18:01.904Z,18.41
2022-08-17T08:19:00.644Z,18.46
2022-08-17T08:20:44.654Z,18.46
2022-08-17T08:21:02.916Z,18.46
2022-08-17T08:22:07.015Z,18.46
2022-08-17T08:23:10.197Z,18.46
2022-08-17T08:24:10.158Z,18.49
2022-08-17T08:25:06.702Z,18.49
2022-08-17T08:26:01.270Z,18.49
2022-08-17T08:27:03.631Z,18.49
2022-08-17T08:28:09.094Z,18.49
2022-08-17T08:29:10.168Z,18.64
2022-08-17T08:30:05.337Z,18.64
2022-08-17T08:31:06.566Z,18.64
2022-08-17T08:32:07.702Z,18.64
2022-08-17T08:33:10.173Z,18.64
2022-08-17T08:34:03.535Z,18.61
2022-08-17T08:35:10.201Z,18.61
2022-08-17T08:36:06.428Z,18.61
2022-08-17T08:37:16.494Z,18.61
2022-08-17T08:38:10.169Z,18.61
2022-08-17T08:39:07.779Z,18.54
2022-08-17T08:40:07.991Z,18.54
2022-08-17T08:41:00.262Z,18.54
2022-08-17T08:42:09.673Z,18.54
2022-08-17T08:43:01.272Z,18.54
2022-08-17T08:44:07.807Z,18.69
2022-08-17T08:46:10.178Z,18.69
2022-08-17T08:47:03.649Z,18.69
2022-08-17T08:48:05.459Z,18.69
2022-08-17T08:49:09.976Z,18.75
2022-08-17T08:50:07.953Z,18.75
2022-08-17T08:51:10.177Z,18.75
2022-08-17T08:52:02.291Z,18.75
2022-08-17T08:53:00.254Z,18.75
2022-08-17T08:54:05.490Z,18.72
2022-08-17T08:55:07.580Z,18.72
2022-08-17T08:56:05.514Z,18.72
2022-08-17T08:57:25.467Z,18.72
2022-08-17T08:58:04.065Z,18.72
2022-08-17T08:59:06.500Z,18.75
2022-08-17T09:00:06.939Z,18.75
2022-08-17T09:01:04.830Z,18.75
2022-08-17T09:02:10.178Z,18.75
2022-08-17T09:03:03.574Z,18.75
2022-08-17T09:04:24.293Z,18.76
2022-08-17T09:05:14.691Z,18.76
2022-08-17T09:06:33.578Z,18.76
2022-08-17T09:07:05.229Z,18.76
2022-08-17T09:08:06.205Z,18.76
2022-08-17T09:09:09.556Z,18.70
2022-08-17T09:10:10.056Z,18.70
2022-08-17T09:11:07.734Z,18.70
2022-08-17T09:12:07.820Z,18.70
2022-08-17T09:13:09.165Z,18.70
2022-08-17T09:14:07.697Z,18.82
2022-08-17T09:15:04.583Z,18.82
2022-08-17T09:16:05.684Z,18.82
2022-08-17T09:17:10.183Z,18.82
2022-08-17T09:19:02.303Z,18.82
2022-08-17T09:19:10.175Z,18.69
2022-08-17T09:20:04.850Z,18.69
2022-08-17T09:21:01.831Z,18.69
2022-08-17T09:22:05.048Z,18.69
2022-08-17T09:23:00.257Z,18.69
2022-08-17T09:24:05.860Z,18.84
2022-08-17T09:25:06.330Z,18.84
2022-08-17T09:26:10.165Z,18.84
2022-08-17T09:27:07.206Z,18.84
2022-08-17T09:28:00.742Z,18.84
2022-08-17T09:29:02.426Z,18.85
2022-08-17T09:30:03.427Z,18.85
2022-08-17T09:31:02.616Z,18.85
2022-08-17T09:32:02.681Z,18.85
2022-08-17T09:33:03.289Z,18.85
2022-08-17T09:34:04.354Z,18.92
2022-08-17T09:35:04.181Z,18.92
2022-08-17T09:36:02.538Z,18.92
2022-08-17T09:37:10.180Z,18.92
2022-08-17T09:38:03.904Z,18.92
2022-08-17T09:39:10.195Z,18.89
2022-08-17T09:40:10.266Z,18.89
2022-08-17T09:41:10.165Z,18.89
2022-08-17T09:42:10.162Z,18.89
2022-08-17T09:43:05.287Z,18.89
2022-08-17T09:44:04.653Z,18.98
2022-08-17T09:45:10.188Z,18.98
2022-08-17T09:46:02.902Z,18.98
2022-08-17T09:47:03.580Z,18.98
2022-08-17T09:48:06.077Z,18.98
2022-08-17T09:49:10.172Z,18.98
2022-08-17T09:50:04.889Z,18.98
2022-08-17T09:51:04.481Z,18.98
2022-08-17T09:52:02.313Z,18.98
2022-08-17T09:53:00.397Z,18.98
2022-08-17T09:54:15.129Z,18.95
2022-08-17T09:55:00.464Z,18.95
2022-08-17T09:56:10.192Z,18.95
2022-08-17T09:57:29.072Z,18.95
2022-08-17T09:58:00.260Z,18.95
2022-08-17T09:59:00.297Z,19.10
2022-08-17T10:00:10.203Z,19.10
2022-08-17T10:01:09.705Z,19.10
2022-08-17T10:02:10.177Z,19.10
2022-08-17T10:03:03.575Z,19.10
2022-08-17T10:04:10.172Z,19.07
2022-08-17T10:05:00.254Z,19.07
2022-08-17T10:06:06.577Z,19.07
2022-08-17T10:07:06.112Z,19.07
2022-08-17T10:08:07.367Z,19.07
2022-08-17T10:09:10.162Z,19.17
2022-08-17T10:10:14.068Z,19.17
2022-08-17T10:11:05.656Z,19.17
2022-08-17T10:12:04.383Z,19.17
2022-08-17T10:13:09.758Z,19.17
2022-08-17T10:14:36.914Z,19.22
2022-08-17T10:15:10.171Z,19.22
2022-08-17T10:16:10.169Z,19.22
2022-08-17T10:17:01.281Z,19.22
2022-08-17T10:18:09.128Z,19.22
2022-08-17T10:19:09.152Z,19.27
2022-08-17T10:20:10.187Z,19.27
2022-08-17T10:21:03.704Z,19.27
2022-08-17T10:22:32.473Z,19.27
2022-08-17T10:23:02.811Z,19.27
2022-08-17T10:24:10.182Z,19.28
2022-08-17T10:25:22.470Z,19.28
2022-08-17T10:26:06.844Z,19.28
2022-08-17T10:27:02.512Z,19.28
2022-08-17T10:28:04.082Z,19.28
2022-08-17T10:29:05.324Z,19.12
2022-08-17T10:30:01.704Z,19.12
2022-08-17T10:31:31.047Z,19.12
2022-08-17T10:32:05.200Z,19.12
2022-08-17T10:33:03.593Z,19.12
2022-08-17T10:34:10.172Z,19.22
2022-08-17T10:35:01.311Z,19.22
2022-08-17T10:36:10.885Z,19.22
2022-08-17T10:37:01.284Z,19.22
2022-08-17T10:38:10.162Z,19.22
2022-08-17T10:39:08.337Z,19.24
2022-08-17T10:40:01.336Z,19.24
2022-08-17T10:41:03.926Z,19.24
2022-08-17T10:42:03.880Z,19.24
2022-08-17T10:43:10.174Z,19.24
2022-08-17T10:44:38.758Z,19.29
2022-08-17T10:45:05.809Z,19.29
2022-08-17T10:46:27.910Z,19.29
2022-08-17T10:47:05.225Z,19.29
2022-08-17T10:48:10.450Z,19.29
2022-08-17T10:49:10.169Z,19.25
2022-08-17T10:50:10.277Z,19.25
2022-08-17T10:51:03.145Z,19.25
2022-08-17T10:52:02.644Z,19.25
2022-08-17T10:53:00.503Z,19.25
2022-08-17T10:54:00.298Z,19.36
2022-08-17T10:55:00.268Z,19.36
2022-08-17T10:56:10.199Z,19.36
2022-08-17T10:57:00.730Z,19.36
2022-08-17T10:58:10.211Z,19.36
2022-08-17T10:59:00.300Z,19.28
2022-08-17T11:00:03.727Z,19.28
2022-08-17T11:01:00.357Z,19.28
2022-08-17T11:02:10.174Z,19.28
2022-08-17T11:03:00.773Z,19.28
2022-08-17T11:04:10.196Z,19.18
2022-08-17T11:05:07.609Z,19.18
2022-08-17T11:06:01.283Z,19.18
2022-08-17T11:07:00.270Z,19.18
2022-08-17T11:08:07.769Z,19.18
2022-08-17T11:09:09.588Z,19.38
2022-08-17T11:10:10.304Z,19.38
2022-08-17T11:11:07.724Z,19.38
2022-08-17T11:12:10.208Z,19.38
2022-08-17T11:13:05.628Z,19.38
2022-08-17T11:14:10.199Z,19.27
2022-08-17T11:15:03.544Z,19.27
2022-08-17T11:16:10.191Z,19.27
2022-08-17T11:17:00.250Z,19.27
2022-08-17T11:18:00.281Z,19.27
2022-08-17T11:19:10.210Z,19.32
2022-08-17T11:20:10.222Z,19.32
2022-08-17T11:21:08.379Z,19.32
2022-08-17T11:22:10.197Z,19.32
2022-08-17T11:23:10.190Z,19.32
2022-08-17T11:24:00.288Z,19.29
2022-08-17T11:25:10.246Z,19.29
2022-08-17T11:26:01.856Z,19.29
2022-08-17T11:27:12.317Z,19.29
2022-08-17T11:28:10.182Z,19.29
2022-08-17T11:29:06.499Z,19.45
2022-08-17T11:30:03.745Z,19.45
2022-08-17T11:31:07.501Z,19.45
2022-08-17T11:32:04.192Z,19.45
2022-08-17T11:33:10.224Z,19.45
2022-08-17T11:34:02.071Z,19.44
2022-08-17T11:35:10.232Z,19.44
2022-08-17T11:36:10.213Z,19.44
2022-08-17T11:37:07.788Z,19.44
2022-08-17T11:38:14.048Z,19.44
2022-08-17T11:39:03.532Z,19.58
2022-08-17T11:40:00.378Z,19.58
2022-08-17T11:41:10.217Z,19.58
2022-08-17T11:42:03.773Z,19.58
2022-08-17T11:43:01.292Z,19.58
2022-08-17T11:44:10.235Z,19.58
2022-08-17T11:45:07.849Z,19.58
2022-08-17T11:46:00.299Z,19.58
2022-08-17T11:47:10.234Z,19.58
2022-08-17T11:48:27.987Z,19.58
2022-08-17T11:49:07.048Z,19.44
2022-08-17T11:50:10.242Z,19.44
2022-08-17T11:51:10.200Z,19.44
2022-08-17T11:52:00.254Z,19.44
2022-08-17T11:53:00.355Z,19.44
2022-08-17T11:54:32.319Z,19.33
2022-08-17T11:55:24.175Z,19.33
2022-08-17T11:56:01.629Z,19.33
2022-08-17T11:57:10.211Z,19.33
2022-08-17T11:58:02.101Z,19.33
2022-08-17T11:59:00.320Z,19.13
2022-08-17T12:00:04.457Z,19.13
2022-08-17T12:01:01.411Z,19.13
2022-08-17T12:02:01.184Z,19.13
2022-08-17T12:03:10.272Z,19.13
2022-08-17T12:04:10.260Z,19.27
2022-08-17T12:05:01.287Z,19.27
2022-08-17T12:06:10.198Z,19.27
2022-08-17T12:07:10.203Z,19.27
2022-08-17T12:08:00.287Z,19.27
2022-08-17T12:09:08.118Z,19.46
2022-08-17T12:10:00.663Z,19.46
2022-08-17T12:11:10.214Z,19.46
2022-08-17T12:12:12.946Z,19.46
2022-08-17T12:14:00.550Z,19.32
2022-08-17T12:15:10.502Z,19.32
2022-08-17T12:16:00.519Z,19.32
2022-08-17T12:17:05.626Z,19.32
2022-08-17T12:18:00.336Z,19.32
2022-08-17T12:19:02.231Z,19.37
2022-08-17T12:20:10.193Z,19.37
2022-08-17T12:21:10.185Z,19.37
2022-08-17T12:22:03.449Z,19.37
2022-08-17T12:23:05.127Z,19.37
2022-08-17T12:24:10.182Z,19.64
2022-08-17T12:25:06.805Z,19.64
2022-08-17T12:26:10.180Z,19.64
2022-08-17T12:27:01.629Z,19.64
2022-08-17T12:28:05.728Z,19.64
2022-08-17T12:29:02.828Z,19.56
2022-08-17T12:30:03.623Z,19.56
2022-08-17T12:31:01.352Z,19.56
2022-08-17T12:32:00.432Z,19.56
2022-08-17T12:33:00.466Z,19.56
2022-08-17T12:34:01.579Z,19.48
2022-08-17T12:35:01.480Z,19.48
2022-08-17T12:36:05.373Z,19.48
2022-08-17T12:37:01.669Z,19.48
2022-08-17T12:38:01.432Z,19.48
2022-08-17T12:39:13.668Z,19.66
2022-08-17T12:40:00.397Z,19.66
2022-08-17T12:41:01.283Z,19.66
2022-08-17T12:42:02.599Z,19.66
2022-08-17T12:43:01.694Z,19.66
2022-08-17T12:44:02.551Z,19.69
2022-08-17T12:45:00.307Z,19.69
2022-08-17T12:46:00.316Z,19.69
2022-08-17T12:47:01.922Z,19.69
2022-08-17T12:48:02.253Z,19.69
2022-08-17T12:49:10.174Z,19.69
2022-08-17T12:50:05.964Z,19.69
2022-08-17T12:51:02.457Z,19.69
2022-08-17T12:52:10.228Z,19.69
2022-08-17T12:53:02.442Z,19.69
2022-08-17T12:54:00.832Z,19.61
2022-08-17T12:55:10.222Z,19.61
2022-08-17T12:56:00.860Z,19.61